Time;durP1;ratioP1;P1;durP2;ratioP2;P2;SDS_P1;SDS_P2;PMS_P1;PMS_P2;Temp;Humidity;BMP_temperature;BMP_pressure;BME280_temperature;BME280_humidity;BME280_pressure;Samples;Min_cycle;Max_cycle;Signal;HPM_P1;HPM_P2
2021/12/07 00:02:18;;;;;;;9.20;8.90;;;-0.70;99.90;;;;;;5080912;28;20288;-79
2021/12/07 00:04:48;;;;;;;9.37;9.07;;;-0.70;99.90;;;;;;5079017;28;20233;-78
2021/12/07 00:07:17;;;;;;;9.10;8.80;;;-0.70;99.90;;;;;;5079176;28;20225;-78
2021/12/07 00:09:49;;;;;;;9.30;9.00;;;-0.70;99.90;;;;;;5078361;28;20290;-79
2021/12/07 00:12:18;;;;;;;9.50;9.20;;;-0.70;99.90;;;;;;5079572;28;20241;-79
2021/12/07 00:14:46;;;;;;;9.53;9.23;;;-0.70;99.90;;;;;;5079913;28;20230;-78
2021/12/07 00:17:14;;;;;;;9.40;9.10;;;-0.70;99.90;;;;;;5091977;28;20260;-79
2021/12/07 00:19:42;;;;;;;9.33;9.03;;;-0.70;99.90;;;;;;5088109;28;20214;-79
2021/12/07 00:22:12;;;;;;;9.13;8.83;;;-0.70;99.90;;;;;;5081771;28;20234;-79
2021/12/07 00:24:41;;;;;;;9.00;8.70;;;-0.70;99.90;;;;;;5080735;28;20263;-79
2021/12/07 00:27:09;;;;;;;8.57;8.37;;;-0.60;99.90;;;;;;5079935;28;20315;-79
2021/12/07 00:29:39;;;;;;;9.03;8.73;;;-0.60;99.90;;;;;;5078260;28;20252;-79
2021/12/07 00:32:20;;;;;;;9.10;8.80;;;-0.60;99.90;;;;;;5079612;28;20331;-79
2021/12/07 00:35:13;;;;;;;9.37;9.07;;;-0.60;99.90;;;;;;5079227;28;20273;-79
2021/12/07 00:37:49;;;;;;;9.10;8.80;;;-0.60;99.90;;;;;;5078328;28;20232;-78
2021/12/07 00:40:20;;;;;;;9.30;9.00;;;-0.60;99.90;;;;;;5077902;28;20223;-78
2021/12/07 00:42:49;;;;;;;9.60;9.30;;;-0.60;99.90;;;;;;5078141;28;20243;-78
2021/12/07 00:45:21;;;;;;;9.50;9.20;;;-0.60;99.90;;;;;;5078168;28;20257;-79
2021/12/07 00:47:51;;;;;;;9.07;8.77;;;-0.60;99.90;;;;;;5079228;28;20226;-78
2021/12/07 00:50:23;;;;;;;9.40;9.10;;;-0.60;99.90;;;;;;5077534;28;20234;-78
2021/12/07 00:52:54;;;;;;;9.50;9.20;;;-0.50;99.90;;;;;;5078266;28;20230;-78
2021/12/07 00:55:27;;;;;;;9.30;9.00;;;-0.50;99.90;;;;;;5078374;28;20241;-79
2021/12/07 00:57:58;;;;;;;9.10;8.80;;;-0.60;99.90;;;;;;5077908;28;20235;-78
2021/12/07 01:00:29;;;;;;;9.30;9.00;;;-0.60;99.90;;;;;;5077437;28;20225;-78
2021/12/07 01:02:57;;;;;;;9.60;9.30;;;-0.60;99.90;;;;;;5078531;28;20280;-78
2021/12/07 01:05:31;;;;;;;9.50;9.20;;;-0.60;99.90;;;;;;5079270;28;20262;-79
2021/12/07 01:08:19;;;;;;;9.60;9.30;;;-0.60;99.90;;;;;;5078428;28;20228;-78
2021/12/07 01:24:41;;;;;;;9.60;9.30;;;-0.60;99.90;;;;;;5099119;28;20214;-77
2021/12/07 01:27:10;;;;;;;9.30;9.00;;;-0.60;99.90;;;;;;5097751;28;20217;-79
2021/12/07 01:29:39;;;;;;;9.20;8.90;;;-0.60;99.90;;;;;;5086146;28;20232;-78
2021/12/07 01:32:19;;;;;;;9.30;9.00;;;-0.60;99.90;;;;;;5081798;28;20236;-80
2021/12/07 01:38:08;;;;;;;9.50;9.20;;;-0.70;99.90;;;;;;5065726;28;20233;-79
2021/12/07 01:40:52;;;;;;;9.53;9.23;;;-0.60;99.90;;;;;;5099915;28;20225;-77
2021/12/07 01:43:50;;;;;;;9.43;9.13;;;-0.60;99.90;;;;;;5101272;28;20237;-79
2021/12/07 01:59:31;;;;;;;9.13;8.83;;;-0.60;99.90;;;;;;5082870;28;20264;-79
2021/12/07 02:00:45;;;;;;;9.10;8.80;;;-0.60;99.90;;;;;;5080585;28;20223;-79
2021/12/07 02:03:13;;;;;;;9.47;9.17;;;-0.60;99.90;;;;;;5081716;28;20273;-79
2021/12/07 02:05:41;;;;;;;9.60;9.30;;;-0.60;99.90;;;;;;5081510;28;20256;-79
2021/12/07 02:08:09;;;;;;;9.43;9.13;;;-0.50;99.90;;;;;;5081667;28;20255;-78
2021/12/07 02:10:38;;;;;;;9.70;9.40;;;-0.50;99.90;;;;;;5081400;28;20246;-79
2021/12/07 02:13:20;;;;;;;9.70;9.40;;;-0.50;99.90;;;;;;5080940;28;20219;-78
2021/12/07 02:15:48;;;;;;;9.60;9.30;;;-0.50;99.90;;;;;;5080474;28;20232;-77
2021/12/07 02:18:16;;;;;;;9.50;9.20;;;-0.40;99.90;;;;;;5080884;28;20374;-77
2021/12/07 02:20:47;;;;;;;9.40;9.10;;;-0.40;99.90;;;;;;5080632;28;20238;-77
2021/12/07 02:23:15;;;;;;;9.17;8.87;;;-0.40;99.90;;;;;;5081291;28;20238;-77
2021/12/07 02:25:43;;;;;;;9.27;8.97;;;-0.40;99.90;;;;;;5080411;28;20407;-78
2021/12/07 02:28:14;;;;;;;9.50;9.20;;;-0.30;99.90;;;;;;5081256;28;20284;-78
2021/12/07 02:30:43;;;;;;;9.10;8.80;;;-0.30;99.90;;;;;;5080791;28;20232;-77
2021/12/07 02:33:11;;;;;;;9.30;9.00;;;-0.30;99.90;;;;;;5081227;28;20224;-78
2021/12/07 02:35:41;;;;;;;9.37;9.07;;;-0.30;99.90;;;;;;5080781;28;20237;-79
2021/12/07 02:38:10;;;;;;;9.10;8.80;;;-0.30;99.90;;;;;;5080830;28;20265;-78
2021/12/07 02:40:38;;;;;;;9.30;9.00;;;-0.30;99.90;;;;;;5081751;28;20228;-77
2021/12/07 02:43:06;;;;;;;9.03;8.73;;;-0.30;99.90;;;;;;5085339;28;20237;-77
2021/12/07 02:45:33;;;;;;;9.50;9.20;;;-0.30;99.90;;;;;;5082098;28;20299;-78
2021/12/07 02:48:01;;;;;;;9.53;9.23;;;-0.20;99.90;;;;;;5081756;28;20226;-77
2021/12/07 02:50:29;;;;;;;9.30;9.00;;;-0.20;99.90;;;;;;5079990;28;20294;-78
2021/12/07 02:52:57;;;;;;;9.30;9.00;;;-0.20;99.90;;;;;;5080098;28;20442;-78
2021/12/07 02:55:26;;;;;;;9.13;8.83;;;-0.20;99.90;;;;;;5080860;28;20223;-78
2021/12/07 02:57:54;;;;;;;9.47;9.17;;;-0.10;99.90;;;;;;5080264;28;20236;-78
2021/12/07 03:00:26;;;;;;;9.40;9.10;;;-0.10;99.90;;;;;;5080090;28;20236;-78
2021/12/07 03:02:59;;;;;;;9.30;9.00;;;-0.10;99.90;;;;;;5086977;28;20237;-76
2021/12/07 03:05:38;;;;;;;9.50;9.20;;;-0.10;99.90;;;;;;5082288;28;20297;-77
2021/12/07 03:08:40;;;;;;;9.30;9.00;;;-0.10;99.90;;;;;;5080717;28;20233;-77
2021/12/07 03:27:57;;;;;;;9.30;9.00;;;-0.10;99.90;;;;;;5080439;28;20223;-78
2021/12/07 03:30:25;;;;;;;9.30;9.00;;;-0.10;99.90;;;;;;5079658;28;20288;-79
2021/12/07 03:32:53;;;;;;;9.03;8.73;;;0.00;99.90;;;;;;5080924;28;20295;-77
2021/12/07 03:35:21;;;;;;;9.20;8.90;;;0.00;99.90;;;;;;5080157;28;20240;-78
2021/12/07 03:37:49;;;;;;;9.47;9.17;;;0.00;99.90;;;;;;5081255;28;20229;-79
2021/12/07 03:40:17;;;;;;;9.30;9.00;;;0.00;99.90;;;;;;5079759;28;20236;-77
2021/12/07 03:42:45;;;;;;;9.10;8.80;;;0.00;99.90;;;;;;5080876;28;20754;-78
2021/12/07 03:45:15;;;;;;;9.50;9.20;;;0.00;99.90;;;;;;5080439;28;20245;-77
2021/12/07 03:47:43;;;;;;;9.00;8.70;;;0.00;99.90;;;;;;5080402;28;20288;-78
2021/12/07 03:50:13;;;;;;;9.40;9.10;;;0.00;99.90;;;;;;5079423;28;20241;-78
2021/12/07 03:52:41;;;;;;;9.20;8.90;;;0.00;99.90;;;;;;5080944;28;20233;-78
2021/12/07 03:55:09;;;;;;;9.10;8.80;;;0.10;99.90;;;;;;5080716;28;20249;-78
2021/12/07 03:57:37;;;;;;;9.20;8.90;;;0.10;99.90;;;;;;5080629;28;20238;-77
2021/12/07 04:00:09;;;;;;;9.20;8.90;;;0.10;99.90;;;;;;5080305;28;20970;-78
2021/12/07 04:02:40;;;;;;;9.13;8.83;;;0.00;99.90;;;;;;5080412;28;20252;-78
2021/12/07 04:05:12;;;;;;;9.43;9.13;;;0.10;99.90;;;;;;5079979;28;20237;-78
2021/12/07 04:07:40;;;;;;;9.17;8.87;;;0.10;99.90;;;;;;5082633;28;20235;-78
2021/12/07 04:10:11;;;;;;;9.13;8.83;;;0.10;99.90;;;;;;5081887;28;20238;-78
2021/12/07 04:12:39;;;;;;;9.07;8.77;;;0.10;99.90;;;;;;5081526;28;20230;-78
2021/12/07 04:15:10;;;;;;;8.93;8.63;;;0.20;99.90;;;;;;5082276;28;20242;-78
2021/12/07 04:17:39;;;;;;;8.93;8.63;;;0.20;99.90;;;;;;5082975;28;20211;-78
2021/12/07 04:20:09;;;;;;;9.00;8.70;;;0.30;99.90;;;;;;5083879;28;20229;-78
2021/12/07 04:22:38;;;;;;;9.10;8.80;;;0.20;99.90;;;;;;5085415;28;20228;-78
2021/12/07 04:25:09;;;;;;;9.03;8.73;;;0.20;99.90;;;;;;5083704;28;20252;-78
2021/12/07 04:27:39;;;;;;;9.07;8.77;;;0.20;99.90;;;;;;5083903;28;20316;-78
2021/12/07 04:30:11;;;;;;;9.13;8.83;;;0.30;99.90;;;;;;5080557;28;20236;-78
2021/12/07 04:32:41;;;;;;;9.40;9.10;;;0.20;99.90;;;;;;5078672;28;20233;-77
2021/12/07 04:35:10;;;;;;;9.30;9.00;;;0.30;99.90;;;;;;5078621;28;20225;-77
2021/12/07 04:37:39;;;;;;;9.10;8.80;;;0.40;99.90;;;;;;5078136;28;20240;-77
2021/12/07 04:40:10;;;;;;;9.17;8.87;;;0.50;99.90;;;;;;5077793;28;20238;-75
2021/12/07 04:42:38;;;;;;;9.00;8.70;;;0.50;99.90;;;;;;5078298;28;21016;-76
2021/12/07 04:45:11;;;;;;;8.90;8.60;;;0.50;99.90;;;;;;5077321;28;20238;-77
2021/12/07 04:47:51;;;;;;;9.20;8.90;;;0.50;99.90;;;;;;5077900;28;20234;-78
2021/12/07 04:58:35;;;;;;;9.00;8.70;;;0.80;99.90;;;;;;5078004;28;20217;-77
2021/12/07 05:01:09;;;;;;;9.17;8.87;;;0.90;99.90;;;;;;5077066;28;20318;-77
2021/12/07 05:03:38;;;;;;;8.50;8.30;;;0.90;99.90;;;;;;5081152;28;20226;-77
2021/12/07 05:06:09;;;;;;;8.90;8.60;;;1.00;99.90;;;;;;5101390;22;20268;-80
2021/12/07 05:08:41;;;;;;;9.17;8.87;;;1.00;99.90;;;;;;5075762;28;20249;-79
2021/12/07 05:14:17;;;;;;;9.10;8.80;;;1.10;99.90;;;;;;5034797;28;20261;-79
2021/12/07 05:17:13;;;;;;;9.20;8.90;;;1.20;99.90;;;;;;5052684;28;20254;-78
2021/12/07 05:25:42;;;;;;;8.50;8.30;;;1.20;99.90;;;;;;5064919;28;20233;-80
2021/12/07 05:39:09;;;;;;;8.70;8.50;;;1.30;99.90;;;;;;5071769;28;20219;-80
2021/12/07 05:41:38;;;;;;;8.97;8.67;;;1.30;99.90;;;;;;5062146;28;20231;-81
2021/12/07 05:44:06;;;;;;;8.87;8.60;;;1.30;99.90;;;;;;5061061;28;20230;-80
2021/12/07 05:46:34;;;;;;;9.00;8.70;;;1.30;99.90;;;;;;5060225;28;20270;-80
2021/12/07 05:49:01;;;;;;;9.07;8.77;;;1.40;99.90;;;;;;5059500;28;20238;-80
2021/12/07 05:51:31;;;;;;;9.17;8.87;;;1.40;99.90;;;;;;5060461;28;20227;-81
2021/12/07 05:53:58;;;;;;;8.97;8.67;;;1.40;99.90;;;;;;5059486;28;20254;-80
2021/12/07 05:56:26;;;;;;;8.93;8.63;;;1.50;99.90;;;;;;5060100;28;20238;-80
2021/12/07 05:58:54;;;;;;;8.70;8.50;;;1.50;99.90;;;;;;5066947;28;20227;-81
2021/12/07 06:01:22;;;;;;;8.77;8.57;;;1.60;99.90;;;;;;5078274;28;20293;-80
2021/12/07 06:03:49;;;;;;;8.73;8.53;;;1.60;99.90;;;;;;5076357;28;20231;-79
2021/12/07 06:06:17;;;;;;;8.97;8.67;;;1.70;99.90;;;;;;5080369;28;20253;-78
2021/12/07 06:08:46;;;;;;;8.77;8.57;;;1.70;99.90;;;;;;5079833;28;20273;-80
2021/12/07 06:11:14;;;;;;;8.87;8.67;;;1.80;99.90;;;;;;5077597;28;20215;-80
2021/12/07 06:13:42;;;;;;;8.97;8.67;;;1.80;99.90;;;;;;5077065;28;20266;-79
2021/12/07 06:16:09;;;;;;;9.00;8.70;;;1.80;99.90;;;;;;5073841;28;20269;-79
2021/12/07 06:18:37;;;;;;;8.80;8.60;;;1.80;99.90;;;;;;5068531;28;20246;-80
2021/12/07 06:21:06;;;;;;;9.00;8.70;;;1.90;99.90;;;;;;5073176;28;20241;-80
2021/12/07 06:23:33;;;;;;;8.90;8.60;;;1.90;99.90;;;;;;5068694;28;20231;-80
2021/12/07 06:26:03;;;;;;;8.73;8.53;;;1.90;99.90;;;;;;5067842;28;20297;-80
2021/12/07 06:28:31;;;;;;;8.60;8.40;;;1.90;99.90;;;;;;5065890;28;20234;-80
2021/12/07 06:30:59;;;;;;;8.87;8.60;;;1.90;99.90;;;;;;5063878;28;20235;-80
2021/12/07 06:33:28;;;;;;;8.53;8.33;;;1.90;99.90;;;;;;5063478;28;20284;-80
2021/12/07 06:35:59;;;;;;;8.63;8.43;;;1.90;99.90;;;;;;5063106;28;20226;-80
2021/12/07 06:38:28;;;;;;;8.30;8.10;;;1.90;99.90;;;;;;5071127;28;20243;-79
2021/12/07 06:40:57;;;;;;;8.87;8.57;;;1.90;99.90;;;;;;5062711;28;20227;-80
2021/12/07 06:43:26;;;;;;;9.20;8.90;;;1.90;99.90;;;;;;5062182;28;20457;-80
2021/12/07 06:45:55;;;;;;;9.37;9.07;;;1.90;99.90;;;;;;5060833;28;20235;-80
2021/12/07 06:48:23;;;;;;;9.60;9.30;;;2.00;99.90;;;;;;5060673;28;20234;-81
2021/12/07 06:50:51;;;;;;;9.70;9.40;;;2.00;99.90;;;;;;5065897;28;20219;-79
2021/12/07 06:53:19;;;;;;;9.70;9.40;;;2.00;99.90;;;;;;5067827;28;20324;-81
2021/12/07 06:55:47;;;;;;;9.60;9.30;;;2.00;99.90;;;;;;5063893;28;20238;-80
2021/12/07 06:58:15;;;;;;;9.60;9.30;;;2.00;99.90;;;;;;5062978;28;20230;-80
2021/12/07 07:00:44;;;;;;;10.40;10.10;;;2.00;99.90;;;;;;5056792;28;20407;-81
2021/12/07 07:03:12;;;;;;;10.30;10.00;;;2.10;99.90;;;;;;5058077;28;20250;-81
2021/12/07 07:05:40;;;;;;;9.80;9.50;;;2.20;99.90;;;;;;5057048;28;20238;-79
2021/12/07 07:08:08;;;;;;;9.50;9.20;;;2.20;99.90;;;;;;5057603;28;20235;-80
2021/12/07 07:10:35;;;;;;;9.80;9.50;;;2.20;99.90;;;;;;5057470;28;20235;-80
2021/12/07 07:13:03;;;;;;;9.30;9.00;;;2.30;99.90;;;;;;5057101;28;20304;-80
2021/12/07 07:15:31;;;;;;;9.73;9.43;;;2.30;99.90;;;;;;5057098;28;20239;-82
2021/12/07 07:18:03;;;;;;;10.07;9.77;;;2.30;99.90;;;;;;5057710;28;20243;-81
2021/12/07 07:20:31;;;;;;;10.07;9.77;;;2.30;99.90;;;;;;5057462;28;20251;-81
2021/12/07 07:22:59;;;;;;;9.73;9.43;;;2.30;99.90;;;;;;5057862;28;20227;-80
2021/12/07 07:25:27;;;;;;;10.17;9.87;;;2.30;99.90;;;;;;5057198;28;20238;-81
2021/12/07 07:27:55;;;;;;;9.90;9.60;;;2.30;99.90;;;;;;5054986;28;21137;-81
2021/12/07 07:30:23;;;;;;;10.13;9.83;;;2.30;99.90;;;;;;5037467;28;20232;-81
2021/12/07 07:32:51;;;;;;;10.07;9.77;;;2.30;99.90;;;;;;5038711;28;20274;-80
2021/12/07 07:35:23;;;;;;;9.90;9.60;;;2.30;99.90;;;;;;5038836;28;20259;-81
2021/12/07 07:37:52;;;;;;;9.73;9.43;;;2.40;99.90;;;;;;5038550;28;20223;-81
2021/12/07 07:40:23;;;;;;;9.50;9.20;;;2.40;99.90;;;;;;5038399;28;20220;-81
2021/12/07 07:42:52;;;;;;;9.40;9.10;;;2.40;99.90;;;;;;5049986;28;20259;-81
2021/12/07 07:45:20;;;;;;;9.77;9.47;;;2.40;99.90;;;;;;5043808;28;20247;-81
2021/12/07 07:47:48;;;;;;;9.40;9.10;;;2.50;99.90;;;;;;5038700;28;20227;-81
2021/12/07 07:50:17;;;;;;;9.30;9.00;;;2.50;99.90;;;;;;5036799;28;20215;-80
2021/12/07 07:52:47;;;;;;;9.53;9.23;;;2.50;99.90;;;;;;5036809;28;20399;-81
2021/12/07 07:55:16;;;;;;;9.77;9.47;;;2.50;99.90;;;;;;5036610;28;20242;-82
2021/12/07 07:57:46;;;;;;;9.90;9.60;;;2.50;99.90;;;;;;5037115;28;20350;-80
2021/12/07 08:00:19;;;;;;;9.37;9.07;;;2.60;99.90;;;;;;5035665;28;20294;-80
2021/12/07 08:02:47;;;;;;;9.87;9.57;;;2.60;99.90;;;;;;5037777;28;20235;-80
2021/12/07 08:05:16;;;;;;;9.67;9.37;;;2.60;99.90;;;;;;5036631;28;20236;-79
2021/12/07 08:07:47;;;;;;;9.50;9.20;;;2.60;99.90;;;;;;5037284;28;20234;-80
2021/12/07 08:10:17;;;;;;;9.67;9.37;;;2.60;99.90;;;;;;5044199;28;20267;-80
2021/12/07 08:12:46;;;;;;;9.80;9.50;;;2.70;99.90;;;;;;5037557;28;20333;-81
2021/12/07 08:15:14;;;;;;;9.70;9.40;;;2.70;99.90;;;;;;5037107;28;20293;-79
2021/12/07 08:17:42;;;;;;;9.70;9.40;;;2.80;99.90;;;;;;5037317;28;20235;-80
2021/12/07 08:20:11;;;;;;;9.43;9.13;;;2.80;99.90;;;;;;5036506;28;20228;-79
2021/12/07 08:22:38;;;;;;;9.50;9.20;;;2.90;99.90;;;;;;5037231;28;20236;-81
2021/12/07 08:25:15;;;;;;;9.60;9.30;;;2.90;99.90;;;;;;5037334;28;20286;-81
2021/12/07 08:27:43;;;;;;;10.00;9.70;;;2.90;99.90;;;;;;5036465;28;20285;-83
2021/12/07 08:30:14;;;;;;;9.60;9.30;;;2.90;99.90;;;;;;5037542;28;20223;-82
2021/12/07 08:32:45;;;;;;;9.57;9.27;;;3.00;99.90;;;;;;5039228;28;20227;-81
2021/12/07 08:35:15;;;;;;;9.87;9.57;;;3.00;99.90;;;;;;5038638;28;20235;-80
2021/12/07 08:37:46;;;;;;;9.90;9.60;;;3.00;99.90;;;;;;5040131;28;20238;-81
2021/12/07 08:40:26;;;;;;;9.73;9.43;;;3.00;99.90;;;;;;5045579;28;20227;-81
2021/12/07 08:42:54;;;;;;;9.83;9.53;;;3.10;99.90;;;;;;5037229;28;20235;-80
2021/12/07 08:45:23;;;;;;;9.90;9.60;;;3.10;99.90;;;;;;5038597;28;20235;-80
2021/12/07 08:47:53;;;;;;;9.73;9.43;;;3.10;99.90;;;;;;5036908;28;20231;-80
2021/12/07 08:50:25;;;;;;;9.10;8.80;;;3.10;99.90;;;;;;5038294;28;20234;-80
2021/12/07 08:52:57;;;;;;;9.17;8.87;;;3.10;99.90;;;;;;5038368;28;21125;-80
2021/12/07 09:01:12;;;;;;;9.00;8.70;;;3.10;99.90;;;;;;5022317;28;20224;-79
2021/12/07 09:03:46;;;;;;;8.77;8.57;;;3.20;99.90;;;;;;5038108;28;20270;-85
2021/12/07 09:06:16;;;;;;;8.77;8.57;;;3.20;99.90;;;;;;5041030;28;20243;-82
2021/12/07 09:08:44;;;;;;;9.23;8.93;;;3.30;99.90;;;;;;5052860;28;20240;-79
2021/12/07 09:11:15;;;;;;;9.50;9.20;;;3.30;99.90;;;;;;5050160;28;20232;-78
2021/12/07 09:13:44;;;;;;;9.23;8.93;;;3.30;99.90;;;;;;5057391;28;20281;-80
2021/12/07 09:16:15;;;;;;;9.53;9.23;;;3.30;99.90;;;;;;5066416;28;20237;-79
2021/12/07 09:18:44;;;;;;;9.30;9.00;;;3.40;99.90;;;;;;5066531;28;20223;-79
2021/12/07 09:21:12;;;;;;;9.60;9.30;;;3.40;99.90;;;;;;5056952;28;20388;-80
2021/12/07 09:23:41;;;;;;;9.77;9.47;;;3.50;99.90;;;;;;5058992;28;20243;-78
2021/12/07 09:26:10;;;;;;;9.23;8.93;;;3.60;99.90;;;;;;5059420;28;20238;-79
2021/12/07 09:28:44;;;;;;;9.10;8.80;;;3.70;99.90;;;;;;5059278;28;20235;-79
2021/12/07 09:31:12;;;;;;;9.37;9.07;;;3.70;99.90;;;;;;5064698;28;20223;-79
2021/12/07 09:33:42;;;;;;;9.60;9.30;;;3.70;99.90;;;;;;5074094;28;20262;-80
2021/12/07 09:36:13;;;;;;;9.20;8.90;;;3.70;99.90;;;;;;5076535;28;20262;-76
2021/12/07 09:38:42;;;;;;;9.10;8.80;;;3.70;99.90;;;;;;5072671;28;20222;-79
2021/12/07 09:41:13;;;;;;;9.13;8.83;;;3.70;99.90;;;;;;5071238;28;20284;-80
2021/12/07 09:43:43;;;;;;;8.23;8.03;;;3.70;99.90;;;;;;5062953;28;20235;-83
2021/12/07 09:46:13;;;;;;;8.53;8.33;;;3.70;99.90;;;;;;5059373;28;20240;-82
2021/12/07 09:48:41;;;;;;;8.97;8.70;;;3.70;99.90;;;;;;5039367;28;20236;-80
2021/12/07 09:51:16;;;;;;;8.77;8.57;;;3.80;99.90;;;;;;5044151;28;20322;-81
2021/12/07 09:53:44;;;;;;;8.80;8.60;;;3.80;99.90;;;;;;5058739;28;20275;-81
2021/12/07 09:56:12;;;;;;;9.30;9.00;;;3.80;99.90;;;;;;5037502;28;20239;-80
2021/12/07 09:58:43;;;;;;;9.30;9.00;;;3.90;99.90;;;;;;5054423;28;20241;-79
2021/12/07 10:01:12;;;;;;;9.20;8.90;;;3.90;99.90;;;;;;5054714;28;20229;-80
2021/12/07 10:03:41;;;;;;;9.00;8.73;;;4.00;99.90;;;;;;5061860;28;20306;-81
2021/12/07 10:06:09;;;;;;;8.90;8.70;;;4.00;99.90;;;;;;5063344;28;20306;-80
2021/12/07 10:08:38;;;;;;;8.97;8.77;;;4.10;99.90;;;;;;5064568;28;20392;-81
2021/12/07 10:11:11;;;;;;;8.70;8.50;;;4.20;99.90;;;;;;5063161;28;20227;-80
2021/12/07 10:13:43;;;;;;;8.83;8.63;;;4.20;99.90;;;;;;5062013;28;20227;-80
2021/12/07 10:16:13;;;;;;;8.70;8.50;;;4.20;99.90;;;;;;5062130;28;20245;-81
2021/12/07 10:18:42;;;;;;;9.03;8.80;;;4.30;99.90;;;;;;5060823;28;20265;-81
2021/12/07 10:21:17;;;;;;;9.20;8.90;;;4.40;99.90;;;;;;5050689;28;20315;-81
2021/12/07 10:23:48;;;;;;;9.10;8.80;;;4.40;99.90;;;;;;5061596;28;20230;-82
2021/12/07 10:26:19;;;;;;;8.93;8.73;;;4.50;99.90;;;;;;5060348;28;20249;-81
2021/12/07 10:28:52;;;;;;;8.80;8.60;;;4.60;99.90;;;;;;5061196;28;20235;-81
2021/12/07 10:31:28;;;;;;;8.80;8.60;;;4.80;99.90;;;;;;5061329;28;20227;-80
2021/12/07 10:34:02;;;;;;;8.87;8.67;;;4.80;99.90;;;;;;5062422;28;20226;-82
2021/12/07 10:36:33;;;;;;;9.27;8.97;;;5.00;99.90;;;;;;5067557;28;20281;-85
2021/12/07 10:39:15;;;;;;;8.90;8.70;;;5.10;99.90;;;;;;5081559;28;20211;-89
2021/12/07 10:44:34;;;;;;;8.50;8.30;;;5.40;99.90;;;;;;5081573;28;20214;-84
2021/12/07 10:47:05;;;;;;;8.40;8.20;;;5.50;99.90;;;;;;5080965;28;20290;-83
2021/12/07 10:49:43;;;;;;;8.20;8.00;;;5.70;99.90;;;;;;5080616;28;20223;-84
2021/12/07 10:52:27;;;;;;;8.20;8.00;;;5.80;99.90;;;;;;5081101;28;20223;-85
2021/12/07 10:55:07;;;;;;;8.00;7.80;;;5.80;99.90;;;;;;5078916;28;20230;-83
2021/12/07 10:57:39;;;;;;;8.50;8.30;;;5.70;99.90;;;;;;5075476;28;20242;-82
2021/12/07 11:00:24;;;;;;;8.30;8.10;;;5.60;99.90;;;;;;5073037;28;20257;-83
2021/12/07 11:02:56;;;;;;;8.47;8.27;;;5.60;99.90;;;;;;5071328;28;20219;-84
2021/12/07 11:05:34;;;;;;;8.97;8.77;;;5.60;99.90;;;;;;5067048;28;20243;-86
2021/12/07 11:08:04;;;;;;;8.60;8.40;;;5.50;99.90;;;;;;5103043;22;20249;-84
2021/12/07 11:10:35;;;;;;;8.67;8.47;;;5.50;99.90;;;;;;5083093;28;20253;-83
2021/12/07 11:13:14;;;;;;;8.60;8.40;;;5.40;99.90;;;;;;5082520;28;20214;-84
2021/12/07 11:15:50;;;;;;;8.93;8.73;;;5.40;99.90;;;;;;5083150;28;20226;-84
2021/12/07 11:18:27;;;;;;;8.80;8.60;;;5.30;99.90;;;;;;5082711;28;20244;-84
2021/12/07 11:20:57;;;;;;;8.53;8.33;;;5.20;99.90;;;;;;5082845;28;20230;-83
2021/12/07 11:32:22;;;;;;;8.40;8.20;;;4.90;99.90;;;;;;5083307;28;20705;-85
2021/12/07 11:34:52;;;;;;;8.77;8.57;;;4.80;99.90;;;;;;5071288;28;20219;-84
2021/12/07 11:37:22;;;;;;;8.50;8.30;;;4.60;99.90;;;;;;5062640;28;20296;-85
2021/12/07 11:40:02;;;;;;;8.20;8.00;;;4.50;99.90;;;;;;5061980;28;20285;-85
2021/12/07 11:45:25;;;;;;;8.50;8.30;;;4.40;99.90;;;;;;5061066;28;20227;-85
2021/12/07 11:48:03;;;;;;;8.50;8.30;;;4.40;99.90;;;;;;5064387;28;20231;-83
2021/12/07 11:50:35;;;;;;;8.43;8.23;;;4.30;99.90;;;;;;5066249;28;20235;-84
2021/12/07 11:53:10;;;;;;;8.30;8.10;;;4.30;99.90;;;;;;5063020;28;20227;-83
2021/12/07 11:55:42;;;;;;;8.50;8.30;;;4.30;99.90;;;;;;5078864;28;20738;-83
2021/12/07 11:58:12;;;;;;;8.67;8.47;;;4.40;99.90;;;;;;5082021;28;20328;-83
2021/12/07 12:00:47;;;;;;;8.70;8.50;;;4.30;99.90;;;;;;5064613;28;20231;-83
2021/12/07 12:03:26;;;;;;;8.50;8.30;;;4.30;99.90;;;;;;5076330;28;20242;-82
2021/12/07 12:05:56;;;;;;;8.70;8.50;;;4.30;99.90;;;;;;5083537;28;20218;-82
2021/12/07 12:08:25;;;;;;;8.40;8.20;;;4.20;99.90;;;;;;5081870;28;20295;-82
2021/12/07 12:11:02;;;;;;;8.80;8.60;;;4.20;99.90;;;;;;5080551;28;20230;-83
2021/12/07 12:13:43;;;;;;;8.20;8.00;;;4.20;99.90;;;;;;5081327;28;20631;-83
2021/12/07 12:16:23;;;;;;;8.00;7.80;;;4.20;99.90;;;;;;5081570;28;20213;-82
2021/12/07 12:19:08;;;;;;;8.23;8.03;;;4.20;99.90;;;;;;5082080;28;20246;-82
2021/12/07 12:24:33;;;;;;;8.57;8.37;;;4.10;99.90;;;;;;5093131;28;20218;-82
2021/12/07 12:27:13;;;;;;;9.13;8.90;;;4.10;99.90;;;;;;5084355;28;20248;-83
2021/12/07 12:32:29;;;;;;;8.90;8.70;;;4.20;99.90;;;;;;5082254;28;20229;-82
2021/12/07 12:35:05;;;;;;;8.83;8.63;;;4.20;99.90;;;;;;5082427;28;20236;-82
2021/12/07 12:37:35;;;;;;;8.57;8.37;;;4.20;99.90;;;;;;5082166;28;20241;-82
2021/12/07 12:40:07;;;;;;;8.60;8.40;;;4.30;99.90;;;;;;5080801;28;20234;-83
2021/12/07 12:42:44;;;;;;;8.60;8.40;;;4.30;99.90;;;;;;5081850;28;20234;-82
2021/12/07 12:45:22;;;;;;;8.60;8.40;;;4.40;99.90;;;;;;5081115;28;20221;-83
2021/12/07 12:47:59;;;;;;;8.60;8.40;;;4.40;99.90;;;;;;5080003;28;20326;-82
2021/12/07 12:50:38;;;;;;;8.43;8.23;;;4.50;99.90;;;;;;5079934;28;20238;-81
2021/12/07 12:53:09;;;;;;;9.20;8.90;;;4.50;99.90;;;;;;5080733;28;20237;-82
2021/12/07 12:55:45;;;;;;;8.90;8.70;;;4.60;99.90;;;;;;5080590;28;20230;-83
2021/12/07 12:58:24;;;;;;;8.50;8.30;;;4.70;99.90;;;;;;5080409;28;20291;-80
2021/12/07 13:04:15;;;;;;;9.30;9.00;;;4.70;99.90;;;;;;5081132;28;20222;-84
2021/12/07 13:07:23;;;;;;;9.20;8.90;;;4.70;99.90;;;;;;5080705;28;20233;-81
2021/12/07 13:09:58;;;;;;;9.40;9.10;;;4.70;99.90;;;;;;5080774;28;20221;-81
2021/12/07 13:12:38;;;;;;;9.20;8.90;;;4.70;99.90;;;;;;5082194;28;20234;-82
2021/12/07 13:15:08;;;;;;;8.70;8.50;;;4.80;99.90;;;;;;5080352;28;20229;-82
2021/12/07 13:17:45;;;;;;;9.13;8.83;;;4.80;99.90;;;;;;5081859;28;20316;-81
2021/12/07 13:20:34;;;;;;;8.60;8.40;;;4.70;99.90;;;;;;5081177;28;20226;-82
2021/12/07 13:23:19;;;;;;;8.90;8.70;;;4.70;99.90;;;;;;5077880;28;20243;-83
2021/12/07 13:25:50;;;;;;;8.70;8.50;;;4.70;99.90;;;;;;5071894;28;20233;-83
2021/12/07 13:28:25;;;;;;;8.77;8.57;;;4.70;99.90;;;;;;5081524;28;20233;-83
2021/12/07 13:31:14;;;;;;;8.63;8.43;;;4.60;99.90;;;;;;5081607;28;20240;-82
2021/12/07 13:33:44;;;;;;;7.83;7.63;;;4.60;99.90;;;;;;5081529;28;20222;-82
2021/12/07 13:36:40;;;;;;;8.30;8.10;;;4.60;99.90;;;;;;5070053;28;20233;-83
2021/12/07 13:39:52;;;;;;;8.30;8.10;;;4.50;99.90;;;;;;5065594;28;20287;-82
2021/12/07 13:42:29;;;;;;;8.33;8.13;;;4.50;99.90;;;;;;5065120;28;20246;-82
2021/12/07 13:45:10;;;;;;;8.47;8.27;;;4.60;99.90;;;;;;5080091;28;20234;-82
2021/12/07 13:47:48;;;;;;;8.47;8.27;;;4.50;99.90;;;;;;5084504;28;20237;-82
2021/12/07 13:50:25;;;;;;;8.40;8.20;;;4.50;99.90;;;;;;5084234;28;20225;-82
2021/12/07 13:52:56;;;;;;;8.30;8.10;;;4.50;99.90;;;;;;5084541;28;20281;-83
2021/12/07 13:59:07;;;;;;;8.50;8.30;;;4.60;99.90;;;;;;5075546;28;20291;-81
2021/12/07 14:01:41;;;;;;;8.60;8.40;;;4.80;99.90;;;;;;5086353;28;20317;-81
2021/12/07 14:04:11;;;;;;;8.50;8.30;;;4.70;99.90;;;;;;5084163;28;20216;-81
2021/12/07 14:06:40;;;;;;;8.47;8.27;;;4.70;99.90;;;;;;5083908;28;20242;-81
2021/12/07 14:09:18;;;;;;;8.60;8.40;;;4.70;99.90;;;;;;5078156;28;20236;-81
2021/12/07 14:11:56;;;;;;;8.63;8.43;;;4.60;99.90;;;;;;5093182;28;20253;-81
2021/12/07 14:14:28;;;;;;;8.90;8.70;;;4.60;99.90;;;;;;5083624;28;20235;-80
2021/12/07 14:17:18;;;;;;;8.73;8.53;;;4.60;99.90;;;;;;5077181;28;20249;-80
2021/12/07 14:20:02;;;;;;;8.50;8.30;;;4.50;99.90;;;;;;5082096;28;20294;-80
2021/12/07 14:22:42;;;;;;;8.43;8.23;;;4.50;99.90;;;;;;5076305;28;20230;-83
2021/12/07 14:25:19;;;;;;;7.93;7.73;;;4.50;99.90;;;;;;5073504;28;20242;-81
2021/12/07 14:27:58;;;;;;;7.93;7.73;;;4.50;99.90;;;;;;5067069;28;20238;-82
2021/12/07 14:30:27;;;;;;;8.00;7.80;;;4.50;99.90;;;;;;5065082;28;20279;-82
2021/12/07 14:32:55;;;;;;;8.40;8.20;;;4.50;99.90;;;;;;5064787;28;20219;-83
2021/12/07 14:35:24;;;;;;;8.10;7.90;;;4.40;99.90;;;;;;5065177;28;20222;-83
2021/12/07 14:37:55;;;;;;;8.40;8.20;;;4.50;99.90;;;;;;5066018;28;20258;-83
2021/12/07 14:40:23;;;;;;;8.10;7.90;;;4.50;99.90;;;;;;5065054;28;20235;-83
2021/12/07 14:42:56;;;;;;;8.10;7.90;;;4.40;99.90;;;;;;5064903;28;20234;-82
2021/12/07 14:45:24;;;;;;;7.60;7.40;;;4.40;99.90;;;;;;5065087;28;20235;-83
2021/12/07 14:47:53;;;;;;;7.50;7.30;;;4.40;99.90;;;;;;5063441;28;20231;-82
2021/12/07 14:50:21;;;;;;;7.60;7.40;;;4.50;99.90;;;;;;5064872;28;20231;-83
2021/12/07 14:52:51;;;;;;;7.30;7.10;;;4.50;99.90;;;;;;5070953;28;20219;-83
2021/12/07 14:55:20;;;;;;;7.70;7.50;;;4.50;99.90;;;;;;5074691;28;20227;-83
2021/12/07 14:57:51;;;;;;;7.70;7.50;;;4.60;99.90;;;;;;5071641;28;20235;-82
2021/12/07 15:00:22;;;;;;;7.20;7.00;;;4.60;99.90;;;;;;5076425;28;20285;-84
2021/12/07 15:02:51;;;;;;;7.87;7.67;;;4.60;99.90;;;;;;5067027;28;20249;-83
2021/12/07 15:05:19;;;;;;;7.83;7.63;;;4.60;99.90;;;;;;5065197;28;20289;-82
2021/12/07 15:07:47;;;;;;;8.15;7.95;;;4.60;99.90;;;;;;5064125;28;20579;-83